#dbistima — V2PX5 — position and weather

sailwx.info

Track history (hours):
 
Tides and Currents Weather Stations Pressure Air Temp Water Temp Dewpoint Dewpoint Depression Visibility Wind Speed Wind Dir Waves Ship Positions

#dbistima

Last reported at 2017-Oct-19 00:13 UTC. Time now 2017-Oct-19 13:01 UTC.
Position N 53°52' E 008°44'.

MMSI: 304010972.

Date/timePositionNaut miles runAvg speedWind from/ knotsBaromVisibWave heightAir tempDewpointWater temp
2017-Oct-19 00:13N 53°52' E 008°44'2 9.6
2017-Oct-19 00:00N 53°51' E 008°47'5 9.0
2017-Oct-18 23:30N 53°51' E 008°54'4 8.7
2017-Oct-18 23:00N 53°52' E 009°01'4 8.6
2017-Oct-18 22:30N 53°53' E 009°08'1 1.3
2017-Oct-18 22:01N 53°54' E 009°09'1 2.3
2017-Oct-18 21:30N 53°54' E 009°10'4 7.5
2017-Oct-18 21:00N 53°57' E 009°14'4 8.4
2017-Oct-18 20:30N 54°01' E 009°18'4 7.2
2017-Oct-18 19:59N 54°05' E 009°19'4 7.9
2017-Oct-18 19:29N 54°09' E 009°21'1 2.3
2017-Oct-18 19:00N 54°09' E 009°22'4 7.8
2017-Oct-18 18:30N 54°11' E 009°29'4 8.7
2017-Oct-18 18:00N 54°13' E 009°35'4 7.4
2017-Oct-18 17:30N 54°16' E 009°38'4 7.7
2017-Oct-18 17:00N 54°19' E 009°43'4 8.1
2017-Oct-18 16:29N 54°22' E 009°48'32 7.1
2017-Oct-18 12:01N 54°34' E 010°38'1911.1
2017-Oct-18 10:17N 54°36' E 011°11'311.5
2017-Oct-18 10:00N 54°34' E 011°16'611.5
2017-Oct-18 09:30N 54°32' E 011°25'611.5
2017-Oct-18 09:00N 54°30' E 011°34'2110.7
2017-Oct-18 07:03N 54°28' E 012°10'011.3
2017-Oct-18 07:00N 54°28' E 012°10'611.3
2017-Oct-18 06:30N 54°34' E 012°14'510.5
2017-Oct-18 06:00N 54°38' E 012°18'6710.8
2017-Oct-17 23:48N 55°05' E 014°05'510.7
2017-Oct-17 23:19N 55°09' E 014°11'710.4
2017-Oct-17 22:36N 55°15' E 014°19'210.4
2017-Oct-17 22:27N 55°16' E 014°21'510.5
2017-Oct-17 22:00N 55°20' E 014°26'510.5
2017-Oct-17 21:30N 55°24' E 014°31'510.4
2017-Oct-17 21:00N 55°28' E 014°38'510.4
2017-Oct-17 20:30N 55°30' E 014°46'510.5
2017-Oct-17 20:00N 55°33' E 014°54'510.6
2017-Oct-17 19:30N 55°36' E 015°02'510.6
2017-Oct-17 19:00N 55°38' E 015°10'1010.5
2017-Oct-17 18:05N 55°43' E 015°25'110.5
2017-Oct-17 18:00N 55°44' E 015°26'510.6
2017-Oct-17 17:30N 55°46' E 015°34'510.6
2017-Oct-17 17:00N 55°49' E 015°43'510.5
2017-Oct-17 16:30N 55°51' E 015°51'510.2
2017-Oct-17 16:00N 55°54' E 015°59'510.2
2017-Oct-17 15:30N 55°56' E 016°07'510.3
2017-Oct-17 15:00N 55°59' E 016°15'510.5
2017-Oct-17 14:30N 56°01' E 016°23'510.4
2017-Oct-17 14:00N 56°04' E 016°31'610.5
2017-Oct-17 13:26N 56°08' E 016°40'1710.4
2017-Oct-17 11:49N 56°18' E 017°04'410.5
2017-Oct-17 11:26N 56°20' E 017°10'510.5
2017-Oct-17 10:59N 56°23' E 017°16'510.7
2017-Oct-17 10:30N 56°26' E 017°23'510.8
2017-Oct-17 10:00N 56°30' E 017°31'510.5
2017-Oct-17 09:30N 56°33' E 017°39'  
2017-Oct-14 04:33N 55°53' E 016°17'110.9
2017-Oct-14 04:30N 55°53' E 016°16'511.0
2017-Oct-14 04:00N 55°50' E 016°07'611.1
2017-Oct-14 03:30N 55°48' E 015°59'611.1
2017-Oct-14 03:00N 55°45' E 015°50'611.2
2017-Oct-14 02:30N 55°43' E 015°41'611.4
2017-Oct-14 02:00N 55°40' E 015°32'611.4
2017-Oct-14 01:30N 55°37' E 015°23'611.4
2017-Oct-14 01:00N 55°34' E 015°14'811.5
2017-Oct-14 00:18N 55°31' E 015°02'311.4
2017-Oct-14 00:00N 55°29' E 014°57'611.4
2017-Oct-13 23:30N 55°26' E 014°48'611.4
2017-Oct-13 23:01N 55°24' E 014°39'711.2
2017-Oct-13 22:22N 55°18' E 014°31'411.3
2017-Oct-13 21:59N 55°15' E 014°26'611.5
2017-Oct-13 21:30N 55°10' E 014°21'611.4
2017-Oct-13 21:00N 55°06' E 014°14'611.2
2017-Oct-13 20:29N 55°01' E 014°08'911.7
2017-Oct-13 19:43N 54°58' E 013°53'2911.4
2017-Oct-13 17:12N 54°49' E 013°06'1111.1
2017-Oct-13 16:14N 54°43' E 012°51'311.3
2017-Oct-13 16:00N 54°42' E 012°47'611.2
2017-Oct-13 15:30N 54°39' E 012°39'511.0
2017-Oct-13 15:00N 54°36' E 012°30'510.8
2017-Oct-13 14:30N 54°33' E 012°22'1010.7
2017-Oct-13 13:32N 54°25' E 012°11'010.4
2017-Oct-13 13:30N 54°25' E 012°10'611.2
2017-Oct-13 13:00N 54°25' E 012°01'1610.8
2017-Oct-13 11:31N 54°29' E 011°34'111.2
2017-Oct-13 11:27N 54°29' E 011°33'512.0
2017-Oct-13 11:00N 54°31' E 011°24'612.1
2017-Oct-13 10:30N 54°34' E 011°15'612.2
2017-Oct-13 10:00N 54°36' E 011°05'713.1
2017-Oct-13 09:30N 54°35' E 010°54'612.3
2017-Oct-13 09:00N 54°34' E 010°43'611.4
2017-Oct-13 08:30N 54°33' E 010°33'45 4.8
2017-Oct-12 23:10N 54°10' E 009°27'1 8.7
2017-Oct-12 23:00N 54°10' E 009°24'2 3.5
2017-Oct-12 22:30N 54°09' E 009°22'1 1.6
2017-Oct-12 22:00N 54°09' E 009°21'4 6.5
2017-Oct-12 21:23N 54°05' E 009°19'3 8.2
2017-Oct-12 21:00N 54°01' E 009°18'4 7.9
2017-Oct-12 20:30N 53°58' E 009°15'3 6.1
2017-Oct-12 20:00N 53°56' E 009°12'3 5.7
2017-Oct-12 19:30N 53°54' E 009°09'1 2.3
2017-Oct-12 19:00N 53°53' E 009°07'3 6.7
2017-Oct-12 18:30N 53°52' E 009°02'612.3
2017-Oct-12 18:00N 53°50' E 008°52'611.4
2017-Oct-12 17:30N 53°53' E 008°43'1211.0
2017-Oct-12 16:24N 53°59' E 008°25'612.0
2017-Oct-12 15:52N 53°59' E 008°14'511.6
2017-Oct-12 15:24N 53°59' E 008°05'9512.0
2017-Oct-12 07:26N 53°34' E 005°29'1010.8
2017-Oct-12 06:30N 53°30' E 005°13'510.6
2017-Oct-12 06:00N 53°29' E 005°05'510.5
2017-Oct-12 05:30N 53°27' E 004°57'510.4
2017-Oct-12 05:00N 53°24' E 004°49'5 9.9
2017-Oct-12 04:30N 53°22' E 004°42'12 9.9
2017-Oct-12 03:14N 53°11' E 004°32'210.0
2017-Oct-12 02:59N 53°09' E 004°30'610.1
2017-Oct-12 02:22N 53°03' E 004°25'510.2
2017-Oct-12 01:52N 52°59' E 004°21'410.2
2017-Oct-12 01:31N 52°55' E 004°18'148 3.7
2017-Oct-10 09:16N 51°30' E 001°00'2 9.2
2017-Oct-10 09:01N 51°30' E 001°04'4 8.8
2017-Oct-10 08:30N 51°29' E 001°11'7 8.5
2017-Oct-10 07:40N 51°28' E 001°23'1 8.1
2017-Oct-10 07:31N 51°28' E 001°24'4 8.3
2017-Oct-10 07:01N 51°25' E 001°30'2 3.6
2017-Oct-10 06:31N 51°24' E 001°32'3 5.4
2017-Oct-10 06:01N 51°23' E 001°35'3 5.2
2017-Oct-10 05:31N 51°20' E 001°36'3 5.5
2017-Oct-10 05:01N 51°17' E 001°37'4 7.3
2017-Oct-10 04:31N 51°14' E 001°39'4 7.7
2017-Oct-10 04:00N 51°10' E 001°42'3 6.2
2017-Oct-10 03:31N 51°08' E 001°43'612.0
2017-Oct-10 03:01N 51°03' E 001°37'510.4
2017-Oct-10 02:31N 50°60' E 001°31'5 9.7
2017-Oct-10 02:00N 50°56' E 001°25'59 7.7
2017-Oct-09 18:16N 50°23' E 000°08'2 7.5
2017-Oct-09 17:58N 50°22' E 000°04'3 7.5
2017-Oct-09 17:31N 50°21' W 000°01'4 7.4
2017-Oct-09 17:01N 50°20' W 000°06'4 7.4
2017-Oct-09 16:30N 50°19' W 000°12'4 7.2
2017-Oct-09 16:00N 50°18' W 000°17'11711.0
2017-Oct-09 05:21N 49°50' W 003°15'410.3
2017-Oct-09 04:58N 49°51' W 003°21'510.1
2017-Oct-09 04:26N 49°51' W 003°29'4 9.7
2017-Oct-09 03:59N 49°51' W 003°36'5 9.5
2017-Oct-09 03:28N 49°52' W 003°43'4 9.2
2017-Oct-09 03:00N 49°52' W 003°50'4 9.1
2017-Oct-09 02:30N 49°52' W 003°57'5 9.1
2017-Oct-09 02:00N 49°52' W 004°04'  
Track history (hours):
 
Tides and Currents Weather Stations Pressure Air Temp Water Temp Dewpoint Dewpoint Depression Visibility Wind Speed Wind Dir Waves Ship Positions

#dbistima

Last reported at 2017-Oct-19 00:13 UTC. Time now 2017-Oct-19 13:01 UTC.
Position N 53°52' E 008°44'.

MMSI: 304010972.

Date/timePositionNaut miles runAvg speedWind from/ knotsBaromVisibWave heightAir tempDewpointWater temp
2017-Oct-19 00:13N 53°52' E 008°44'2 9.6
2017-Oct-19 00:00N 53°51' E 008°47'5 9.0
2017-Oct-18 23:30N 53°51' E 008°54'4 8.7
2017-Oct-18 23:00N 53°52' E 009°01'4 8.6
2017-Oct-18 22:30N 53°53' E 009°08'1 1.3
2017-Oct-18 22:01N 53°54' E 009°09'1 2.3
2017-Oct-18 21:30N 53°54' E 009°10'4 7.5
2017-Oct-18 21:00N 53°57' E 009°14'4 8.4
2017-Oct-18 20:30N 54°01' E 009°18'4 7.2
2017-Oct-18 19:59N 54°05' E 009°19'4 7.9
2017-Oct-18 19:29N 54°09' E 009°21'1 2.3
2017-Oct-18 19:00N 54°09' E 009°22'4 7.8
2017-Oct-18 18:30N 54°11' E 009°29'4 8.7
2017-Oct-18 18:00N 54°13' E 009°35'4 7.4
2017-Oct-18 17:30N 54°16' E 009°38'4 7.7
2017-Oct-18 17:00N 54°19' E 009°43'4 8.1
2017-Oct-18 16:29N 54°22' E 009°48'32 7.1
2017-Oct-18 12:01N 54°34' E 010°38'1911.1
2017-Oct-18 10:17N 54°36' E 011°11'311.5
2017-Oct-18 10:00N 54°34' E 011°16'611.5
2017-Oct-18 09:30N 54°32' E 011°25'611.5
2017-Oct-18 09:00N 54°30' E 011°34'2110.7
2017-Oct-18 07:03N 54°28' E 012°10'011.3
2017-Oct-18 07:00N 54°28' E 012°10'611.3
2017-Oct-18 06:30N 54°34' E 012°14'510.5
2017-Oct-18 06:00N 54°38' E 012°18'6710.8
2017-Oct-17 23:48N 55°05' E 014°05'510.7
2017-Oct-17 23:19N 55°09' E 014°11'710.4
2017-Oct-17 22:36N 55°15' E 014°19'210.4
2017-Oct-17 22:27N 55°16' E 014°21'510.5
2017-Oct-17 22:00N 55°20' E 014°26'510.5
2017-Oct-17 21:30N 55°24' E 014°31'510.4
2017-Oct-17 21:00N 55°28' E 014°38'510.4
2017-Oct-17 20:30N 55°30' E 014°46'510.5
2017-Oct-17 20:00N 55°33' E 014°54'510.6
2017-Oct-17 19:30N 55°36' E 015°02'510.6
2017-Oct-17 19:00N 55°38' E 015°10'1010.5
2017-Oct-17 18:05N 55°43' E 015°25'110.5
2017-Oct-17 18:00N 55°44' E 015°26'510.6
2017-Oct-17 17:30N 55°46' E 015°34'510.6
2017-Oct-17 17:00N 55°49' E 015°43'510.5
2017-Oct-17 16:30N 55°51' E 015°51'510.2
2017-Oct-17 16:00N 55°54' E 015°59'510.2
2017-Oct-17 15:30N 55°56' E 016°07'510.3
2017-Oct-17 15:00N 55°59' E 016°15'510.5
2017-Oct-17 14:30N 56°01' E 016°23'510.4
2017-Oct-17 14:00N 56°04' E 016°31'610.5
2017-Oct-17 13:26N 56°08' E 016°40'1710.4
2017-Oct-17 11:49N 56°18' E 017°04'410.5
2017-Oct-17 11:26N 56°20' E 017°10'510.5
2017-Oct-17 10:59N 56°23' E 017°16'510.7
2017-Oct-17 10:30N 56°26' E 017°23'510.8
2017-Oct-17 10:00N 56°30' E 017°31'510.5
2017-Oct-17 09:30N 56°33' E 017°39'  
2017-Oct-14 04:33N 55°53' E 016°17'110.9
2017-Oct-14 04:30N 55°53' E 016°16'511.0
2017-Oct-14 04:00N 55°50' E 016°07'611.1
2017-Oct-14 03:30N 55°48' E 015°59'611.1
2017-Oct-14 03:00N 55°45' E 015°50'611.2
2017-Oct-14 02:30N 55°43' E 015°41'611.4
2017-Oct-14 02:00N 55°40' E 015°32'611.4
2017-Oct-14 01:30N 55°37' E 015°23'611.4
2017-Oct-14 01:00N 55°34' E 015°14'811.5
2017-Oct-14 00:18N 55°31' E 015°02'311.4
2017-Oct-14 00:00N 55°29' E 014°57'611.4
2017-Oct-13 23:30N 55°26' E 014°48'611.4
2017-Oct-13 23:01N 55°24' E 014°39'711.2
2017-Oct-13 22:22N 55°18' E 014°31'411.3
2017-Oct-13 21:59N 55°15' E 014°26'611.5
2017-Oct-13 21:30N 55°10' E 014°21'611.4
2017-Oct-13 21:00N 55°06' E 014°14'611.2
2017-Oct-13 20:29N 55°01' E 014°08'911.7
2017-Oct-13 19:43N 54°58' E 013°53'2911.4
2017-Oct-13 17:12N 54°49' E 013°06'1111.1
2017-Oct-13 16:14N 54°43' E 012°51'311.3
2017-Oct-13 16:00N 54°42' E 012°47'611.2
2017-Oct-13 15:30N 54°39' E 012°39'511.0
2017-Oct-13 15:00N 54°36' E 012°30'510.8
2017-Oct-13 14:30N 54°33' E 012°22'1010.7
2017-Oct-13 13:32N 54°25' E 012°11'010.4
2017-Oct-13 13:30N 54°25' E 012°10'611.2
2017-Oct-13 13:00N 54°25' E 012°01'1610.8
2017-Oct-13 11:31N 54°29' E 011°34'111.2
2017-Oct-13 11:27N 54°29' E 011°33'512.0
2017-Oct-13 11:00N 54°31' E 011°24'612.1
2017-Oct-13 10:30N 54°34' E 011°15'612.2
2017-Oct-13 10:00N 54°36' E 011°05'713.1
2017-Oct-13 09:30N 54°35' E 010°54'612.3
2017-Oct-13 09:00N 54°34' E 010°43'611.4
2017-Oct-13 08:30N 54°33' E 010°33'45 4.8
2017-Oct-12 23:10N 54°10' E 009°27'1 8.7
2017-Oct-12 23:00N 54°10' E 009°24'2 3.5
2017-Oct-12 22:30N 54°09' E 009°22'1 1.6
2017-Oct-12 22:00N 54°09' E 009°21'4 6.5
2017-Oct-12 21:23N 54°05' E 009°19'3 8.2
2017-Oct-12 21:00N 54°01' E 009°18'4 7.9
2017-Oct-12 20:30N 53°58' E 009°15'3 6.1
2017-Oct-12 20:00N 53°56' E 009°12'3 5.7
2017-Oct-12 19:30N 53°54' E 009°09'1 2.3
2017-Oct-12 19:00N 53°53' E 009°07'3 6.7
2017-Oct-12 18:30N 53°52' E 009°02'612.3
2017-Oct-12 18:00N 53°50' E 008°52'611.4
2017-Oct-12 17:30N 53°53' E 008°43'1211.0
2017-Oct-12 16:24N 53°59' E 008°25'612.0
2017-Oct-12 15:52N 53°59' E 008°14'511.6
2017-Oct-12 15:24N 53°59' E 008°05'9512.0
2017-Oct-12 07:26N 53°34' E 005°29'1010.8
2017-Oct-12 06:30N 53°30' E 005°13'510.6
2017-Oct-12 06:00N 53°29' E 005°05'510.5
2017-Oct-12 05:30N 53°27' E 004°57'510.4
2017-Oct-12 05:00N 53°24' E 004°49'5 9.9
2017-Oct-12 04:30N 53°22' E 004°42'12 9.9
2017-Oct-12 03:14N 53°11' E 004°32'210.0
2017-Oct-12 02:59N 53°09' E 004°30'610.1
2017-Oct-12 02:22N 53°03' E 004°25'510.2
2017-Oct-12 01:52N 52°59' E 004°21'410.2
2017-Oct-12 01:31N 52°55' E 004°18'148 3.7
2017-Oct-10 09:16N 51°30' E 001°00'2 9.2
2017-Oct-10 09:01N 51°30' E 001°04'4 8.8
2017-Oct-10 08:30N 51°29' E 001°11'7 8.5
2017-Oct-10 07:40N 51°28' E 001°23'1 8.1
2017-Oct-10 07:31N 51°28' E 001°24'4 8.3
2017-Oct-10 07:01N 51°25' E 001°30'2 3.6
2017-Oct-10 06:31N 51°24' E 001°32'3 5.4
2017-Oct-10 06:01N 51°23' E 001°35'3 5.2
2017-Oct-10 05:31N 51°20' E 001°36'3 5.5
2017-Oct-10 05:01N 51°17' E 001°37'4 7.3
2017-Oct-10 04:31N 51°14' E 001°39'4 7.7
2017-Oct-10 04:00N 51°10' E 001°42'3 6.2
2017-Oct-10 03:31N 51°08' E 001°43'612.0
2017-Oct-10 03:01N 51°03' E 001°37'510.4
2017-Oct-10 02:31N 50°60' E 001°31'5 9.7
2017-Oct-10 02:00N 50°56' E 001°25'59 7.7
2017-Oct-09 18:16N 50°23' E 000°08'2 7.5
2017-Oct-09 17:58N 50°22' E 000°04'3 7.5
2017-Oct-09 17:31N 50°21' W 000°01'4 7.4
2017-Oct-09 17:01N 50°20' W 000°06'4 7.4
2017-Oct-09 16:30N 50°19' W 000°12'4 7.2
2017-Oct-09 16:00N 50°18' W 000°17'11711.0
2017-Oct-09 05:21N 49°50' W 003°15'410.3
2017-Oct-09 04:58N 49°51' W 003°21'510.1
2017-Oct-09 04:26N 49°51' W 003°29'4 9.7
2017-Oct-09 03:59N 49°51' W 003°36'5 9.5
2017-Oct-09 03:28N 49°52' W 003°43'4 9.2
2017-Oct-09 03:00N 49°52' W 003°50'4 9.1
2017-Oct-09 02:30N 49°52' W 003°57'5 9.1
2017-Oct-09 02:00N 49°52' W 004°04'  

Dump ship's entire track history